createdAt,value
2019-03-28T00:01:07.404Z,60.50
2019-03-28T00:06:04.384Z,60.30
2019-03-28T00:11:01.401Z,61.47
2019-03-28T00:15:58.419Z,61.87
2019-03-28T00:20:55.894Z,54.47
2019-03-28T00:25:52.963Z,55.20
2019-03-28T00:30:50.076Z,58.40
2019-03-28T00:35:47.140Z,50.43
2019-03-28T00:40:44.282Z,51.40
2019-03-28T00:45:44.409Z,42.03
2019-03-28T00:50:40.233Z,41.37
2019-03-28T00:55:37.414Z,51.87
2019-03-28T01:00:35.018Z,48.37
2019-03-28T01:05:32.054Z,38.93
2019-03-28T01:10:32.109Z,33.27
2019-03-28T01:15:29.095Z,31.70
2019-03-28T01:20:26.495Z,28.60
2019-03-28T01:25:23.491Z,35.07
2019-03-28T01:30:20.551Z,33.87
2019-03-28T01:35:17.603Z,33.10
2019-03-28T01:40:14.602Z,33.43
2019-03-28T01:45:11.745Z,29.20
2019-03-28T01:50:09.088Z,24.57
2019-03-28T01:55:06.804Z,23.90
2019-03-28T02:00:09.321Z,26.00
2019-03-28T02:05:06.989Z,24.67
2019-03-28T02:10:05.850Z,26.13
2019-03-28T02:15:06.196Z,19.50
2019-03-28T02:20:06.665Z,15.07
2019-03-28T02:25:06.752Z,17.20
2019-03-28T02:30:07.170Z,14.73
2019-03-28T02:35:04.998Z,14.90
2019-03-28T02:40:03.301Z,13.30
2019-03-28T02:45:00.664Z,14.70
2019-03-28T02:49:57.716Z,12.37
2019-03-28T02:54:54.822Z,12.13
2019-03-28T02:59:52.379Z,12.53
2019-03-28T03:04:49.495Z,13.30
2019-03-28T03:09:46.617Z,13.07
2019-03-28T03:14:45.891Z,12.67
2019-03-28T03:19:42.934Z,14.00
2019-03-28T03:24:41.846Z,11.23
2019-03-28T03:29:38.955Z,11.93
2019-03-28T03:34:35.998Z,10.73
2019-03-28T03:39:33.102Z,12.43
2019-03-28T03:44:30.181Z,13.13
2019-03-28T03:49:27.257Z,12.40
2019-03-28T03:54:24.345Z,13.10
2019-03-28T03:59:22.490Z,12.47
2019-03-28T04:04:19.610Z,11.77
2019-03-28T04:09:17.533Z,14.27
2019-03-28T04:14:14.732Z,12.57
2019-03-28T04:19:12.077Z,13.10
2019-03-28T04:24:11.008Z,12.20
2019-03-28T04:29:10.233Z,13.47
2019-03-28T04:34:08.817Z,26.80
2019-03-28T04:39:06.333Z,34.93
2019-03-28T04:44:04.540Z,32.33
2019-03-28T04:49:01.714Z,25.53
2019-03-28T04:53:59.013Z,23.57
2019-03-28T04:59:00.271Z,27.53
2019-03-28T05:03:57.541Z,32.17
2019-03-28T05:08:54.837Z,44.20
2019-03-28T05:13:53.937Z,27.57
2019-03-28T05:18:52.486Z,29.43
2019-03-28T05:23:52.587Z,16.20
2019-03-28T05:28:57.406Z,21.90
2019-03-28T05:33:48.672Z,19.00
2019-03-28T05:38:46.280Z,12.03
2019-03-28T05:43:45.498Z,10.83
2019-03-28T05:48:43.415Z,12.67
2019-03-28T05:53:40.509Z,11.70
2019-03-28T05:58:38.152Z,11.87
2019-03-28T06:03:36.091Z,10.27
2019-03-28T06:08:33.211Z,11.53
2019-03-28T06:13:33.253Z,12.97
2019-03-28T06:18:33.212Z,11.70
2019-03-28T06:23:30.340Z,12.60
2019-03-28T06:28:27.436Z,11.53
2019-03-28T06:33:24.596Z,11.10
2019-03-28T06:38:21.861Z,10.80
2019-03-28T06:43:20.994Z,10.50
2019-03-28T06:48:20.597Z,10.63
2019-03-28T06:53:17.644Z,11.00
2019-03-28T06:58:21.128Z,12.23
2019-03-28T07:03:20.061Z,10.73
2019-03-28T07:08:17.471Z,11.03
2019-03-28T07:13:16.332Z,11.43
2019-03-28T07:18:13.347Z,11.77
2019-03-28T07:23:16.515Z,10.70
2019-03-28T07:28:13.753Z,11.53
2019-03-28T07:33:10.897Z,9.53
2019-03-28T07:38:08.673Z,9.97
2019-03-28T07:43:08.372Z,9.87
2019-03-28T07:48:05.742Z,11.57
2019-03-28T07:53:04.813Z,12.30
2019-03-28T07:58:01.958Z,11.87
2019-03-28T08:03:03.597Z,12.07
2019-03-28T08:07:58.153Z,10.77
2019-03-28T08:12:55.269Z,10.57
2019-03-28T08:17:52.311Z,12.43
2019-03-28T08:22:49.872Z,11.27
2019-03-28T08:27:48.263Z,13.97
2019-03-28T08:32:47.951Z,12.87
2019-03-28T08:37:45.301Z,14.30
2019-03-28T08:42:42.461Z,12.10
2019-03-28T08:47:39.527Z,13.13
2019-03-28T08:52:38.773Z,13.00
2019-03-28T08:57:37.733Z,12.70
2019-03-28T09:02:38.072Z,12.63
2019-03-28T09:07:41.622Z,14.43
2019-03-28T09:12:38.936Z,12.43
2019-03-28T09:17:36.130Z,12.37
2019-03-28T09:22:38.916Z,10.43
2019-03-28T09:27:41.318Z,8.77
2019-03-28T09:32:38.638Z,12.17
2019-03-28T09:37:35.722Z,13.17
2019-03-28T09:42:32.899Z,11.53
2019-03-28T09:47:31.205Z,14.33
2019-03-28T09:52:30.336Z,14.73
2019-03-28T09:57:27.640Z,15.53
2019-03-28T10:02:26.650Z,14.47
2019-03-28T10:07:25.727Z,16.27
2019-03-28T10:12:24.758Z,13.17
2019-03-28T10:17:59.202Z,15.73
2019-03-28T10:23:28.131Z,12.87
2019-03-28T10:28:34.612Z,13.03
2019-03-28T10:33:33.180Z,12.90
2019-03-28T10:38:30.356Z,13.63
2019-03-28T10:43:30.147Z,13.87
2019-03-28T10:48:27.517Z,15.77
2019-03-28T10:53:29.839Z,16.40
2019-03-28T10:58:26.719Z,17.20
2019-03-28T11:03:24.819Z,14.87
2019-03-28T11:08:22.031Z,15.67
2019-03-28T11:13:19.244Z,14.10
2019-03-28T11:18:17.235Z,16.93
2019-03-28T11:23:25.542Z,18.73
2019-03-28T11:28:23.520Z,16.23
2019-03-28T11:33:26.141Z,21.63
2019-03-28T11:38:29.675Z,19.07
2019-03-28T11:49:24.491Z,17.10
2019-03-28T11:54:41.514Z,22.47
2019-03-28T11:59:40.528Z,22.80
2019-03-28T12:04:38.857Z,24.70
2019-03-28T12:09:36.041Z,19.17
2019-03-28T12:14:38.657Z,21.40
2019-03-28T12:19:42.851Z,25.63
2019-03-28T12:24:40.015Z,27.37
2019-03-28T12:29:36.990Z,30.13
2019-03-28T12:34:37.357Z,26.23
2019-03-28T12:39:35.227Z,30.63
2019-03-28T12:44:32.489Z,27.87
2019-03-28T12:49:29.607Z,23.53
2019-03-28T12:54:26.797Z,26.00
2019-03-28T12:59:23.898Z,31.33
2019-03-28T13:04:21.321Z,36.40
2019-03-28T13:09:18.314Z,27.57
2019-03-28T13:14:15.393Z,23.77
2019-03-28T13:19:17.431Z,24.07
2019-03-28T13:24:14.550Z,23.50
2019-03-28T13:29:14.252Z,22.00
2019-03-28T13:34:14.437Z,24.67
2019-03-28T13:39:11.547Z,25.30
2019-03-28T13:44:12.254Z,20.93
2019-03-28T13:49:08.867Z,18.97
2019-03-28T13:54:06.148Z,22.33
2019-03-28T13:59:03.885Z,20.23
2019-03-28T14:04:02.793Z,19.37
2019-03-28T14:09:01.814Z,20.20
2019-03-28T14:14:03.869Z,19.33
2019-03-28T14:19:05.188Z,16.47
2019-03-28T14:24:17.039Z,17.37
2019-03-28T14:29:14.175Z,17.80
2019-03-28T14:34:13.105Z,15.07
2019-03-28T14:39:10.213Z,16.20
2019-03-28T14:44:07.351Z,16.63
2019-03-28T14:49:05.540Z,14.27
2019-03-28T14:54:02.621Z,18.27
2019-03-28T14:59:00.471Z,19.03
2019-03-28T15:04:00.285Z,18.50
2019-03-28T15:08:57.755Z,19.10
2019-03-28T15:13:54.767Z,20.83
2019-03-28T15:18:53.000Z,18.93
2019-03-28T15:23:50.020Z,20.17
2019-03-28T15:28:47.084Z,18.67
2019-03-28T15:33:44.133Z,16.97
2019-03-28T15:38:41.279Z,17.00
2019-03-28T15:43:38.349Z,18.43
2019-03-28T15:48:35.685Z,18.93
2019-03-28T15:53:33.256Z,20.03
2019-03-28T15:58:32.573Z,17.93
2019-03-28T16:03:29.684Z,16.03
2019-03-28T16:08:27.784Z,13.47
2019-03-28T16:13:25.129Z,14.53
2019-03-28T16:18:22.198Z,16.80
2019-03-28T16:23:19.307Z,14.33
2019-03-28T16:28:16.442Z,16.10
2019-03-28T16:33:13.469Z,14.93
2019-03-28T16:38:10.743Z,14.30
2019-03-28T16:43:07.813Z,15.30
2019-03-28T16:48:04.904Z,16.83
2019-03-28T16:53:01.985Z,17.23
2019-03-28T16:57:59.147Z,13.77
2019-03-28T17:02:56.177Z,14.17
2019-03-28T17:07:53.481Z,12.43
2019-03-28T17:12:50.486Z,11.23
2019-03-28T17:17:47.602Z,12.57
2019-03-28T17:22:44.572Z,11.00
2019-03-28T17:27:41.719Z,14.37
2019-03-28T17:32:38.881Z,12.23
2019-03-28T17:37:36.417Z,16.00
2019-03-28T17:42:33.790Z,16.70
2019-03-28T17:47:30.868Z,17.27
2019-03-28T17:52:28.027Z,16.70
2019-03-28T17:57:25.090Z,14.67
2019-03-28T18:02:22.152Z,19.70
2019-03-28T18:07:19.326Z,17.70
2019-03-28T18:12:16.363Z,17.93
2019-03-28T18:17:13.450Z,20.13
2019-03-28T18:22:10.400Z,17.63
2019-03-28T18:27:07.483Z,13.37
2019-03-28T18:32:04.488Z,16.20
2019-03-28T18:37:08.708Z,18.73
2019-03-28T18:42:05.699Z,22.43
2019-03-28T18:47:02.844Z,20.67
2019-03-28T18:51:59.930Z,14.73
2019-03-28T18:56:57.038Z,16.40
2019-03-28T19:01:54.135Z,17.03
2019-03-28T19:06:52.610Z,16.70
2019-03-28T19:11:49.657Z,15.33
2019-03-28T19:16:48.311Z,16.43
2019-03-28T19:21:45.584Z,16.80
2019-03-28T19:26:42.877Z,15.60
2019-03-28T19:31:40.129Z,16.17
2019-03-28T19:36:37.560Z,15.63
2019-03-28T19:41:34.627Z,14.60
2019-03-28T19:46:32.207Z,17.00
2019-03-28T19:51:29.787Z,27.60
2019-03-28T19:56:26.969Z,25.70
2019-03-28T20:01:24.105Z,24.00
2019-03-28T20:06:22.688Z,22.83
2019-03-28T20:11:20.785Z,42.00
2019-03-28T20:16:17.930Z,45.77
2019-03-28T20:21:15.057Z,47.03
2019-03-28T20:26:12.475Z,56.70
2019-03-28T20:31:09.633Z,62.87
2019-03-28T20:36:35.511Z,56.77
2019-03-28T20:41:05.585Z,58.07
2019-03-28T20:46:02.980Z,59.47
2019-03-28T20:51:03.294Z,72.73
2019-03-28T20:55:59.155Z,77.87
2019-03-28T21:00:56.137Z,69.47
2019-03-28T21:05:53.251Z,67.53
2019-03-28T21:10:50.317Z,86.00
2019-03-28T21:15:48.668Z,86.40
2019-03-28T21:20:45.645Z,84.37
2019-03-28T21:25:42.682Z,62.87
2019-03-28T21:30:47.138Z,57.47
2019-03-28T21:35:39.206Z,51.33
2019-03-28T21:40:36.613Z,52.07
2019-03-28T21:45:34.169Z,67.37
2019-03-28T21:50:31.248Z,57.37
2019-03-28T21:55:28.378Z,97.43
2019-03-28T22:00:25.537Z,90.87
2019-03-28T22:05:22.662Z,83.07
2019-03-28T22:10:19.698Z,99.50
2019-03-28T22:15:16.737Z,87.83
2019-03-28T22:20:15.137Z,112.93
2019-03-28T22:25:12.123Z,110.43
2019-03-28T22:30:09.619Z,81.03
2019-03-28T22:35:06.893Z,77.80
2019-03-28T22:40:06.574Z,72.33
2019-03-28T22:45:07.074Z,60.30
2019-03-28T22:50:07.154Z,56.17
2019-03-28T22:55:08.057Z,55.07
2019-03-28T23:00:09.149Z,55.93
2019-03-28T23:05:07.355Z,59.00
2019-03-28T23:10:07.222Z,59.57
2019-03-28T23:15:06.735Z,62.00
2019-03-28T23:20:07.866Z,62.00
2019-03-28T23:25:05.595Z,52.57
2019-03-28T23:30:05.861Z,47.07
2019-03-28T23:35:03.567Z,42.83
2019-03-28T23:40:00.635Z,44.27
2019-03-28T23:44:58.251Z,43.87
2019-03-28T23:49:55.321Z,40.03
2019-03-28T23:54:52.808Z,36.87
2019-03-28T23:59:49.937Z,37.97
